Time;durP1;ratioP1;P1;durP2;ratioP2;P2;SDS_P1;SDS_P2;PMS_P1;PMS_P2;Temp;Humidity;BMP_temperature;BMP_pressure;BME280_temperature;BME280_humidity;BME280_pressure;Samples;Min_cycle;Max_cycle;Signal;HPM_P1;HPM_P2
2020/12/26 00:02:08;;;;;;;12.55;6.13;;;2.10;99.90;;;;;;5005654;28;20119;-80
2020/12/26 00:04:36;;;;;;;16.83;6.78;;;2.10;99.90;;;;;;4984879;28;20038;-78
2020/12/26 00:07:03;;;;;;;14.27;6.53;;;2.20;99.90;;;;;;5005366;28;20538;-78
2020/12/26 00:09:29;;;;;;;16.40;6.80;;;;;;;;;;5007281;28;20049;-79
2020/12/26 00:11:55;;;;;;;11.15;5.50;;;;;;;;;;5014379;28;20599;-79
2020/12/26 00:14:27;;;;;;;14.68;6.10;;;2.30;99.90;;;;;;5006510;28;20073;-80
2020/12/26 00:16:53;;;;;;;11.77;5.63;;;2.40;99.90;;;;;;5010001;28;20116;-76
2020/12/26 00:19:19;;;;;;;12.43;6.20;;;2.40;99.90;;;;;;5005981;28;20068;-78
2020/12/26 00:21:44;;;;;;;18.77;5.80;;;2.40;99.90;;;;;;5006744;28;20081;-80
2020/12/26 00:24:10;;;;;;;12.77;5.60;;;2.50;99.90;;;;;;5008386;28;20037;-77
2020/12/26 00:26:35;;;;;;;12.73;6.47;;;2.50;99.90;;;;;;5012037;28;20044;-79
2020/12/26 00:29:01;;;;;;;11.93;5.82;;;2.40;99.90;;;;;;5006610;28;20128;-80
2020/12/26 00:31:27;;;;;;;16.88;6.00;;;2.50;99.90;;;;;;5011754;28;20033;-79
2020/12/26 00:33:53;;;;;;;15.70;6.22;;;2.50;99.90;;;;;;4988108;28;20038;-78
2020/12/26 00:36:19;;;;;;;15.85;6.32;;;2.50;99.90;;;;;;5007441;28;20050;-80
2020/12/26 00:38:44;;;;;;;13.15;6.07;;;2.40;99.90;;;;;;5009876;28;20160;-78
2020/12/26 00:41:13;;;;;;;14.65;5.78;;;2.40;99.90;;;;;;4992311;28;20480;-78
2020/12/26 00:43:39;;;;;;;13.57;5.95;;;2.30;99.90;;;;;;5007308;28;20132;-78
2020/12/26 00:46:05;;;;;;;17.05;6.28;;;2.30;99.90;;;;;;5008433;28;20136;-79
2020/12/26 00:48:31;;;;;;;11.82;6.30;;;2.20;99.90;;;;;;5005039;28;20088;-79
2020/12/26 00:50:56;;;;;;;19.52;6.68;;;2.20;99.90;;;;;;5006050;28;20231;-79
2020/12/26 00:53:22;;;;;;;13.75;6.70;;;2.20;99.90;;;;;;5012014;28;20117;-78
2020/12/26 00:55:47;;;;;;;14.63;6.05;;;2.20;99.90;;;;;;5009336;28;20411;-77
2020/12/26 00:58:13;;;;;;;14.60;6.70;;;2.10;99.90;;;;;;5011658;28;20072;-78
2020/12/26 01:00:38;;;;;;;15.65;6.32;;;2.10;99.90;;;;;;5003157;28;20042;-79
2020/12/26 01:03:04;;;;;;;15.95;6.57;;;2.10;99.90;;;;;;5005482;28;20045;-79
2020/12/26 01:05:30;;;;;;;12.60;6.78;;;2.10;99.90;;;;;;5011084;28;20049;-79
2020/12/26 01:07:55;;;;;;;16.40;6.55;;;2.10;99.90;;;;;;4993571;28;20046;-77
2020/12/26 01:10:21;;;;;;;16.05;7.43;;;2.10;99.90;;;;;;5006722;28;20224;-78
2020/12/26 01:12:46;;;;;;;14.32;7.13;;;2.00;99.90;;;;;;5011995;28;20034;-79
2020/12/26 01:15:12;;;;;;;16.58;6.75;;;2.00;99.90;;;;;;5013576;28;20584;-77
2020/12/26 01:17:38;;;;;;;12.98;6.95;;;2.00;99.90;;;;;;5010889;28;20136;-77
2020/12/26 01:20:05;;;;;;;15.32;7.53;;;1.90;99.90;;;;;;5009765;28;20038;-78
2020/12/26 01:22:30;;;;;;;13.77;6.43;;;2.00;99.90;;;;;;5011440;28;20040;-78
2020/12/26 01:24:56;;;;;;;17.88;7.38;;;1.90;99.90;;;;;;4993315;28;20488;-78
2020/12/26 01:27:21;;;;;;;16.90;7.50;;;1.90;99.90;;;;;;5007602;28;20045;-80
2020/12/26 01:29:49;;;;;;;16.15;6.78;;;1.90;99.90;;;;;;4992406;28;20045;-80
2020/12/26 01:32:14;;;;;;;16.25;6.68;;;1.90;99.90;;;;;;5011181;28;20165;-80
2020/12/26 01:34:40;;;;;;;12.55;7.03;;;1.90;99.90;;;;;;5012220;28;20061;-79
2020/12/26 01:37:06;;;;;;;18.25;7.53;;;1.90;99.90;;;;;;5020397;28;20038;-81
2020/12/26 01:39:31;;;;;;;15.77;6.63;;;1.80;99.90;;;;;;5002054;28;20033;-79
2020/12/26 01:41:57;;;;;;;21.00;7.65;;;1.80;99.90;;;;;;5004841;28;20025;-79
2020/12/26 01:44:22;;;;;;;17.25;7.72;;;1.90;99.90;;;;;;5007894;28;20058;-79
2020/12/26 01:46:50;;;;;;;19.52;8.25;;;1.80;99.90;;;;;;5005792;28;20511;-79
2020/12/26 01:49:20;;;;;;;15.98;7.57;;;1.80;99.90;;;;;;5007532;28;20484;-79
2020/12/26 01:51:47;;;;;;;14.52;7.25;;;1.70;99.90;;;;;;5010934;28;20045;-81
2020/12/26 01:54:13;;;;;;;11.77;7.10;;;1.70;99.90;;;;;;5012933;28;20433;-78
2020/12/26 01:56:40;;;;;;;14.25;7.22;;;1.80;99.90;;;;;;5012261;28;20570;-79
2020/12/26 01:59:06;;;;;;;17.35;7.75;;;1.80;99.90;;;;;;5012246;28;20554;-79
2020/12/26 02:01:34;;;;;;;17.35;8.73;;;1.80;99.90;;;;;;5008659;28;20407;-79
2020/12/26 02:03:59;;;;;;;17.88;8.57;;;1.80;99.90;;;;;;5009702;28;20045;-79
2020/12/26 02:06:44;;;;;;;13.50;7.28;;;1.90;99.90;;;;;;5014316;28;20404;-80
2020/12/26 02:09:11;;;;;;;13.25;6.72;;;1.90;99.90;;;;;;5019905;28;20045;-81
2020/12/26 02:11:37;;;;;;;13.85;7.38;;;2.10;99.90;;;;;;5010640;28;20048;-79
2020/12/26 02:14:03;;;;;;;17.70;8.15;;;2.00;99.90;;;;;;5014159;28;20034;-79
2020/12/26 02:16:29;;;;;;;14.80;7.30;;;2.00;99.90;;;;;;5016825;28;20029;-78
2020/12/26 02:18:55;;;;;;;15.90;7.70;;;2.00;99.90;;;;;;5013227;28;20072;-80
2020/12/26 02:21:26;;;;;;;14.13;7.70;;;2.00;99.90;;;;;;4995061;28;20045;-79
2020/12/26 02:23:51;;;;;;;;;;;2.00;99.90;;;;;;5016710;28;20018;-79
2020/12/26 02:26:27;;;;;;;12.57;6.95;;;2.00;99.90;;;;;;5015850;28;19988;-79
2020/12/26 02:28:53;;;;;;;15.88;7.55;;;2.10;99.90;;;;;;5013929;28;20476;-80
2020/12/26 02:31:18;;;;;;;16.05;7.85;;;2.10;99.90;;;;;;5014717;28;20048;-80
2020/12/26 02:33:44;;;;;;;17.15;7.75;;;2.00;99.90;;;;;;5019001;28;20108;-79
2020/12/26 02:36:09;;;;;;;15.65;7.47;;;2.10;99.90;;;;;;5015951;28;20124;-78
2020/12/26 02:38:35;;;;;;;14.45;7.75;;;2.00;99.90;;;;;;5013550;28;20053;-79
2020/12/26 02:41:01;;;;;;;14.02;7.50;;;2.00;99.90;;;;;;5012509;28;20033;-81
2020/12/26 02:43:26;;;;;;;17.25;8.20;;;2.00;99.90;;;;;;5013350;28;20124;-80
2020/12/26 02:45:54;;;;;;;16.48;8.02;;;2.00;99.90;;;;;;4998375;28;20487;-81
2020/12/26 02:48:19;;;;;;;16.10;8.07;;;2.00;99.90;;;;;;5014663;28;20050;-79
2020/12/26 02:50:45;;;;;;;14.52;7.80;;;1.90;99.90;;;;;;5014807;28;20025;-82
2020/12/26 02:53:11;;;;;;;15.85;7.63;;;2.00;99.90;;;;;;5015586;28;20056;-78
2020/12/26 02:55:37;;;;;;;16.77;7.82;;;2.00;99.90;;;;;;5012045;28;20125;-79
2020/12/26 02:58:03;;;;;;;13.50;7.35;;;2.10;99.90;;;;;;5012800;28;20059;-79
2020/12/26 03:00:29;;;;;;;14.68;7.15;;;2.10;99.90;;;;;;5011637;28;20044;-79
2020/12/26 03:02:55;;;;;;;18.35;7.93;;;2.10;99.90;;;;;;5007856;28;20039;-78
2020/12/26 03:05:21;;;;;;;13.90;7.30;;;2.20;99.90;;;;;;5010374;28;20555;-77
2020/12/26 03:07:47;;;;;;;14.90;7.78;;;2.20;99.90;;;;;;5014297;28;20045;-77
2020/12/26 03:10:13;;;;;;;17.50;7.03;;;2.20;99.90;;;;;;5011534;28;20510;-79
2020/12/26 03:12:38;;;;;;;17.88;7.68;;;2.30;99.90;;;;;;5009945;28;20129;-78
2020/12/26 03:15:05;;;;;;;13.48;7.25;;;2.30;99.90;;;;;;5012301;28;20040;-79
2020/12/26 03:17:31;;;;;;;14.40;6.88;;;2.40;99.90;;;;;;5015225;28;20500;-79
2020/12/26 03:19:58;;;;;;;14.75;7.55;;;2.40;99.90;;;;;;5015224;28;20026;-80
2020/12/26 03:22:25;;;;;;;15.43;7.47;;;2.40;99.90;;;;;;5012111;28;20026;-79
2020/12/26 03:24:51;;;;;;;13.50;6.65;;;2.40;99.90;;;;;;5011907;28;20022;-78
2020/12/26 03:27:17;;;;;;;15.50;7.75;;;2.40;99.90;;;;;;5012458;28;20037;-80
2020/12/26 03:29:42;;;;;;;15.45;7.20;;;2.40;99.90;;;;;;5012872;28;20462;-77
2020/12/26 03:32:08;;;;;;;16.88;7.53;;;2.40;99.90;;;;;;4994155;28;20041;-78
2020/12/26 03:34:33;;;;;;;11.95;7.18;;;2.40;99.90;;;;;;5009584;28;20041;-77
2020/12/26 03:37:00;;;;;;;17.98;7.10;;;2.40;99.90;;;;;;5009989;28;20385;-77
2020/12/26 03:39:25;;;;;;;14.77;7.15;;;2.50;99.90;;;;;;4993478;28;20038;-76
2020/12/26 03:41:51;;;;;;;19.60;7.35;;;2.40;99.90;;;;;;5010511;28;20037;-77
2020/12/26 03:44:16;;;;;;;17.10;7.85;;;2.50;99.90;;;;;;5010819;28;20030;-77
2020/12/26 03:46:42;;;;;;;16.00;7.97;;;2.40;99.90;;;;;;5011484;28;20046;-79
2020/12/26 03:49:07;;;;;;;17.65;8.00;;;2.50;99.90;;;;;;5011098;28;20411;-77
2020/12/26 03:51:33;;;;;;;12.23;6.80;;;2.40;99.90;;;;;;5012398;28;20517;-77
2020/12/26 03:53:59;;;;;;;16.15;6.90;;;2.40;99.90;;;;;;5013281;28;20533;-78
2020/12/26 03:56:25;;;;;;;11.30;6.53;;;2.50;99.90;;;;;;5012874;28;20458;-79
2020/12/26 03:58:50;;;;;;;16.30;7.60;;;2.50;99.90;;;;;;5013019;28;20045;-79
2020/12/26 04:01:16;;;;;;;16.50;7.10;;;2.50;99.90;;;;;;4995387;28;20499;-80
2020/12/26 04:03:42;;;;;;;14.45;6.40;;;2.50;99.90;;;;;;5012471;28;20045;-77
2020/12/26 04:06:08;;;;;;;14.55;7.30;;;2.60;99.90;;;;;;4996088;28;20034;-78
2020/12/26 04:08:33;;;;;;;15.50;6.57;;;2.50;99.90;;;;;;5012794;28;20030;-77
2020/12/26 04:10:59;;;;;;;14.20;6.85;;;2.50;99.90;;;;;;5011665;28;20034;-78
2020/12/26 04:13:25;;;;;;;12.30;7.00;;;2.50;99.90;;;;;;5011974;28;20036;-77
2020/12/26 04:15:50;;;;;;;14.15;6.65;;;2.50;99.90;;;;;;5012907;28;20046;-79
2020/12/26 04:18:16;;;;;;;15.57;7.10;;;2.60;99.90;;;;;;5012146;28;20048;-77
2020/12/26 04:20:41;;;;;;;16.15;7.07;;;2.60;99.90;;;;;;5009188;28;20079;-78
2020/12/26 04:23:07;;;;;;;16.88;8.32;;;2.70;99.90;;;;;;5013545;28;20504;-79
2020/12/26 04:25:33;;;;;;;14.60;7.05;;;2.60;99.90;;;;;;5011184;28;20120;-78
2020/12/26 04:27:58;;;;;;;14.95;7.13;;;2.60;99.90;;;;;;5012744;28;20033;-78
2020/12/26 04:30:25;;;;;;;16.30;7.30;;;2.60;99.90;;;;;;5011134;28;20081;-77
2020/12/26 04:32:51;;;;;;;16.50;7.30;;;2.70;99.90;;;;;;5009091;28;20030;-79
2020/12/26 04:35:20;;;;;;;19.10;7.28;;;2.60;99.90;;;;;;5010975;28;20041;-79
2020/12/26 04:37:49;;;;;;;16.40;7.40;;;2.60;99.90;;;;;;5011468;28;20029;-78
2020/12/26 04:40:16;;;;;;;15.82;7.43;;;2.60;99.90;;;;;;5013111;28;20042;-77
2020/12/26 04:42:46;;;;;;;15.10;7.20;;;2.50;99.90;;;;;;5010717;28;20029;-80
2020/12/26 04:45:11;;;;;;;14.03;7.57;;;2.50;99.90;;;;;;5010049;28;20052;-77
2020/12/26 04:47:45;;;;;;;14.02;7.43;;;2.60;99.90;;;;;;5009949;28;20038;-82
2020/12/26 04:50:12;;;;;;;16.17;7.55;;;2.60;99.90;;;;;;5010417;28;20034;-77
2020/12/26 04:52:46;;;;;;;15.18;7.60;;;2.60;99.90;;;;;;4993661;28;20136;-79
2020/12/26 04:55:12;;;;;;;17.42;7.45;;;2.50;99.90;;;;;;5008740;28;20133;-78
2020/12/26 04:57:38;;;;;;;15.38;8.27;;;2.50;99.90;;;;;;5009816;28;20090;-78
2020/12/26 05:00:05;;;;;;;14.23;7.65;;;2.50;99.90;;;;;;5014070;28;20045;-79
2020/12/26 05:02:36;;;;;;;11.77;6.85;;;2.50;99.90;;;;;;5010945;28;20165;-77
2020/12/26 05:05:04;;;;;;;13.82;7.00;;;2.50;99.90;;;;;;5012481;28;20125;-78
2020/12/26 05:07:31;;;;;;;14.02;7.47;;;2.50;99.90;;;;;;5010403;28;20045;-80
2020/12/26 05:09:57;;;;;;;18.85;8.00;;;2.50;99.90;;;;;;5013450;28;20034;-79
2020/12/26 05:12:23;;;;;;;17.33;8.07;;;2.50;99.90;;;;;;5012655;28;20048;-79
2020/12/26 05:14:51;;;;;;;12.57;7.82;;;2.50;99.90;;;;;;5013733;28;20042;-78
2020/12/26 05:17:17;;;;;;;21.15;8.30;;;2.50;99.90;;;;;;5006813;28;20034;-77
2020/12/26 05:19:45;;;;;;;12.75;7.30;;;2.50;99.90;;;;;;5010671;28;20109;-79
2020/12/26 05:22:11;;;;;;;15.02;7.03;;;2.50;99.90;;;;;;5009395;28;20113;-79
2020/12/26 05:24:36;;;;;;;17.50;8.63;;;2.50;99.90;;;;;;5010598;28;20441;-78
2020/12/26 05:27:02;;;;;;;20.00;8.70;;;2.50;99.90;;;;;;5009480;28;20619;-79
2020/12/26 05:29:29;;;;;;;16.02;8.38;;;2.50;99.90;;;;;;5026139;28;20113;-78
2020/12/26 05:31:59;;;;;;;17.27;7.88;;;2.50;99.90;;;;;;5010699;28;20132;-78
2020/12/26 05:34:35;;;;;;;16.73;8.27;;;2.60;99.90;;;;;;5010435;28;20089;-78
2020/12/26 05:37:03;;;;;;;22.08;9.23;;;2.50;99.90;;;;;;5008579;28;20686;-77
2020/12/26 05:39:33;;;;;;;19.15;8.48;;;2.50;99.90;;;;;;5012745;28;20118;-78
2020/12/26 05:41:59;;;;;;;18.63;8.20;;;2.60;99.90;;;;;;5012153;28;20061;-77
2020/12/26 05:44:32;;;;;;;15.40;7.43;;;2.60;99.90;;;;;;5004776;28;20061;-78
2020/12/26 05:47:00;;;;;;;18.65;7.88;;;2.70;99.90;;;;;;5006817;28;20033;-78
2020/12/26 05:49:29;;;;;;;16.98;8.27;;;2.60;99.90;;;;;;5013128;28;20041;-78
2020/12/26 05:51:58;;;;;;;19.27;9.13;;;2.50;99.90;;;;;;5008419;28;20053;-79
2020/12/26 05:54:27;;;;;;;13.98;7.95;;;2.50;99.90;;;;;;5005820;28;20038;-79
2020/12/26 05:57:07;;;;;;;23.83;8.48;;;2.50;99.90;;;;;;5011090;28;20038;-78
2020/12/26 05:59:33;;;;;;;17.75;8.30;;;2.40;99.90;;;;;;5009125;28;20045;-78
2020/12/26 06:02:15;;;;;;;20.10;8.88;;;2.40;99.90;;;;;;5004964;28;20042;-78
2020/12/26 06:04:55;;;;;;;16.80;9.05;;;2.40;99.90;;;;;;5013665;28;20029;-78
2020/12/26 06:07:26;;;;;;;20.13;8.63;;;2.40;99.90;;;;;;5005903;28;20038;-78
2020/12/26 06:09:54;;;;;;;18.15;8.07;;;2.50;99.90;;;;;;5006211;28;20034;-78
2020/12/26 06:12:21;;;;;;;19.45;8.75;;;2.50;99.90;;;;;;5008550;28;20543;-80
2020/12/26 06:14:48;;;;;;;16.63;8.02;;;2.60;99.90;;;;;;5001086;28;20049;-81
2020/12/26 06:17:26;;;;;;;17.63;8.07;;;2.60;99.90;;;;;;5007727;28;20463;-79
2020/12/26 06:19:56;;;;;;;17.88;8.43;;;2.60;99.90;;;;;;5008891;28;20752;-79
2020/12/26 06:22:22;;;;;;;15.88;8.15;;;2.60;99.90;;;;;;5004240;28;20070;-79
2020/12/26 06:24:48;;;;;;;16.55;8.32;;;2.70;99.90;;;;;;5006178;28;20440;-81
2020/12/26 06:27:14;;;;;;;19.65;8.23;;;2.70;99.90;;;;;;5001271;28;20112;-81
2020/12/26 06:29:43;;;;;;;16.77;8.88;;;2.60;99.90;;;;;;5005617;28;20050;-78
2020/12/26 06:32:10;;;;;;;16.33;9.20;;;2.60;99.90;;;;;;5005292;28;20053;-79
2020/12/26 06:34:38;;;;;;;21.65;8.48;;;2.60;99.90;;;;;;5001412;28;20041;-79
2020/12/26 06:37:04;;;;;;;16.33;8.35;;;2.60;99.90;;;;;;4998446;28;20038;-80
2020/12/26 06:39:31;;;;;;;16.33;7.97;;;2.60;99.90;;;;;;5005252;28;20037;-80
2020/12/26 06:42:13;;;;;;;18.52;8.18;;;2.60;99.90;;;;;;5023464;28;20397;-78
2020/12/26 06:44:39;;;;;;;17.33;8.60;;;2.60;99.90;;;;;;5019487;28;21113;-80
2020/12/26 06:47:05;;;;;;;18.00;8.50;;;3.50;99.90;;;;;;4998164;28;20100;-79
2020/12/26 06:49:31;;;;;;;14.80;8.02;;;2.60;99.90;;;;;;5004546;28;20038;-78
2020/12/26 06:51:57;;;;;;;16.80;8.02;;;2.50;99.90;;;;;;5000976;28;20069;-78
2020/12/26 06:54:39;;;;;;;13.95;7.68;;;2.60;99.90;;;;;;5009237;28;20223;-79
2020/12/26 06:57:05;;;;;;;15.90;8.05;;;2.60;99.90;;;;;;5023989;28;20042;-80
2020/12/26 06:59:33;;;;;;;15.68;8.82;;;2.60;99.90;;;;;;5001330;28;20050;-78
2020/12/26 07:02:04;;;;;;;18.60;8.32;;;2.60;99.90;;;;;;4993927;28;20042;-77
2020/12/26 07:04:36;;;;;;;17.27;8.30;;;2.60;99.90;;;;;;4998347;28;20054;-78
2020/12/26 07:07:02;;;;;;;20.80;8.57;;;2.50;99.90;;;;;;4998655;28;20049;-79
2020/12/26 07:09:37;;;;;;;17.92;8.73;;;3.10;99.90;;;;;;4994759;28;20037;-77
2020/12/26 07:12:07;;;;;;;19.20;8.40;;;2.50;99.90;;;;;;5009211;28;20084;-79
2020/12/26 07:14:38;;;;;;;24.17;9.18;;;2.50;99.90;;;;;;5009808;28;20498;-78
2020/12/26 07:17:04;;;;;;;18.83;8.40;;;2.40;99.90;;;;;;5011441;28;20092;-77
2020/12/26 07:19:39;;;;;;;17.55;8.90;;;2.40;99.90;;;;;;5007323;28;20496;-76
2020/12/26 07:22:05;;;;;;;16.42;8.40;;;2.40;99.90;;;;;;5007088;28;20026;-77
2020/12/26 07:24:34;;;;;;;18.13;9.75;;;2.40;99.90;;;;;;5000484;28;20038;-78
2020/12/26 07:27:32;;;;;;;20.35;9.73;;;2.30;99.90;;;;;;4984093;28;20046;-77
2020/12/26 07:30:14;;;;;;;17.75;9.82;;;2.30;99.90;;;;;;4993497;28;20038;-78
2020/12/26 07:32:51;;;;;;;18.58;9.38;;;2.30;99.90;;;;;;5001549;28;20057;-77
2020/12/26 07:35:20;;;;;;;17.10;9.68;;;2.30;99.90;;;;;;4999512;28;20042;-78
2020/12/26 07:37:56;;;;;;;15.73;9.15;;;2.30;99.90;;;;;;5010252;28;20041;-77
2020/12/26 07:40:34;;;;;;;17.98;9.35;;;2.30;99.90;;;;;;4995438;28;20511;-78
2020/12/26 07:43:03;;;;;;;20.85;9.10;;;2.30;99.90;;;;;;5015923;28;20058;-77
2020/12/26 07:45:31;;;;;;;18.13;9.63;;;2.30;99.90;;;;;;4997540;28;20050;-79
2020/12/26 07:47:59;;;;;;;17.25;9.23;;;2.30;99.90;;;;;;4996299;28;20030;-77
2020/12/26 07:50:30;;;;;;;20.60;9.50;;;2.30;99.90;;;;;;4998819;28;20041;-78
2020/12/26 07:53:03;;;;;;;16.40;8.75;;;2.30;99.90;;;;;;4998374;28;20037;-78
2020/12/26 07:55:29;;;;;;;20.23;9.50;;;2.30;99.90;;;;;;4998281;28;20060;-78
2020/12/26 07:58:15;;;;;;;17.60;9.23;;;2.30;99.90;;;;;;4998494;28;20132;-77
2020/12/26 08:00:43;;;;;;;20.00;9.25;;;2.30;99.90;;;;;;4999138;28;20038;-77
2020/12/26 08:03:12;;;;;;;21.90;9.60;;;2.30;99.90;;;;;;4997955;28;20039;-77
2020/12/26 08:05:39;;;;;;;16.75;9.25;;;2.30;99.90;;;;;;4997955;28;20561;-78
2020/12/26 08:08:21;;;;;;;19.77;9.30;;;2.40;99.90;;;;;;4999779;28;20066;-79
2020/12/26 08:10:54;;;;;;;22.90;10.77;;;2.40;99.90;;;;;;4998224;28;20046;-78
2020/12/26 08:13:20;;;;;;;21.10;10.38;;;2.40;99.90;;;;;;5005281;28;20602;-79
2020/12/26 08:15:45;;;;;;;19.13;9.40;;;2.40;99.90;;;;;;5000042;28;20050;-78
2020/12/26 08:18:12;;;;;;;23.67;9.98;;;2.40;99.90;;;;;;5013845;28;20117;-79
2020/12/26 08:20:38;;;;;;;20.17;9.65;;;2.40;99.90;;;;;;4998589;28;20037;-78
2020/12/26 08:23:10;;;;;;;18.55;9.38;;;2.40;99.90;;;;;;5001731;28;20038;-78
2020/12/26 08:25:36;;;;;;;18.15;9.38;;;2.30;99.90;;;;;;4999023;28;20438;-76
2020/12/26 08:28:01;;;;;;;22.65;10.15;;;2.40;99.90;;;;;;4999377;28;20123;-80
2020/12/26 08:30:35;;;;;;;22.13;9.55;;;2.50;99.90;;;;;;4999019;28;20065;-78
2020/12/26 08:33:28;;;;;;;20.10;9.95;;;2.50;99.90;;;;;;4996753;28;20121;-78
2020/12/26 08:36:00;;;;;;;18.25;9.15;;;2.60;99.90;;;;;;5005760;28;20103;-80
2020/12/26 08:38:34;;;;;;;18.42;9.95;;;2.70;99.90;;;;;;5010761;28;20031;-77
2020/12/26 08:41:04;;;;;;;19.63;10.48;;;2.60;99.90;;;;;;5016468;28;20037;-77
2020/12/26 08:43:30;;;;;;;22.63;11.27;;;2.50;99.90;;;;;;5004021;28;20042;-79
2020/12/26 08:45:55;;;;;;;16.67;10.60;;;2.50;99.90;;;;;;5003062;28;20045;-78
2020/12/26 08:48:23;;;;;;;17.60;10.27;;;2.50;99.90;;;;;;5001884;28;20097;-78
2020/12/26 08:50:57;;;;;;;17.85;10.68;;;2.50;99.90;;;;;;4995566;28;20562;-78
2020/12/26 08:53:23;;;;;;;21.83;11.20;;;2.50;99.90;;;;;;4998777;28;20141;-79
2020/12/26 08:55:53;;;;;;;25.92;12.57;;;2.40;99.90;;;;;;4995324;28;20511;-78
2020/12/26 08:58:30;;;;;;;20.27;11.00;;;2.40;99.90;;;;;;5004685;28;20070;-78
2020/12/26 09:01:00;;;;;;;21.40;10.93;;;2.40;99.90;;;;;;4995627;28;20784;-78
2020/12/26 09:03:28;;;;;;;19.42;11.45;;;2.40;99.90;;;;;;4997839;28;20030;-77
2020/12/26 09:05:55;;;;;;;20.38;11.68;;;2.30;99.90;;;;;;5001081;28;20065;-78
2020/12/26 09:08:47;;;;;;;22.10;11.02;;;2.40;99.90;;;;;;5000668;28;20065;-78
2020/12/26 09:11:13;;;;;;;25.63;11.90;;;2.30;99.90;;;;;;4990754;28;20065;-78
2020/12/26 09:13:49;;;;;;;21.00;11.40;;;2.30;99.90;;;;;;4996131;28;20516;-79
2020/12/26 09:16:15;;;;;;;27.02;12.25;;;2.30;99.90;;;;;;4997788;28;20393;-78
2020/12/26 09:18:44;;;;;;;25.13;13.10;;;2.40;99.90;;;;;;4999232;28;20029;-78
2020/12/26 09:21:26;;;;;;;22.55;12.38;;;2.40;99.90;;;;;;4992641;28;20087;-78
2020/12/26 09:23:54;;;;;;;23.83;13.15;;;2.50;99.90;;;;;;4995740;28;20090;-79
2020/12/26 09:26:22;;;;;;;26.10;12.77;;;2.40;99.90;;;;;;5011823;28;20035;-77
2020/12/26 09:28:56;;;;;;;27.00;14.38;;;2.40;99.90;;;;;;4998822;28;20105;-77
2020/12/26 09:31:26;;;;;;;24.85;12.90;;;2.40;99.90;;;;;;4997925;28;20081;-77
2020/12/26 09:33:53;;;;;;;26.20;12.98;;;2.40;99.90;;;;;;5002311;28;20034;-77
2020/12/26 09:36:21;;;;;;;26.33;14.50;;;2.40;99.90;;;;;;4999008;28;21013;-79
2020/12/26 09:38:48;;;;;;;28.90;13.55;;;2.50;99.90;;;;;;5008378;28;20511;-79
2020/12/26 09:41:16;;;;;;;29.98;14.10;;;2.50;99.90;;;;;;4997510;28;20557;-77
2020/12/26 09:43:44;;;;;;;29.88;14.00;;;2.50;99.90;;;;;;4999272;28;20434;-77
2020/12/26 09:46:09;;;;;;;27.60;13.10;;;2.40;99.90;;;;;;4996874;28;20046;-78
2020/12/26 09:48:35;;;;;;;32.50;14.70;;;2.40;99.90;;;;;;4999141;28;20042;-77
2020/12/26 09:51:01;;;;;;;30.13;13.98;;;2.40;99.90;;;;;;4994417;28;20069;-77
2020/12/26 09:53:27;;;;;;;28.42;13.52;;;2.40;99.90;;;;;;4984018;28;20041;-76
2020/12/26 09:55:53;;;;;;;26.63;13.32;;;2.50;99.90;;;;;;4997143;28;20419;-78
2020/12/26 09:58:18;;;;;;;26.65;12.90;;;2.60;99.90;;;;;;4997866;28;20049;-77
2020/12/26 10:00:44;;;;;;;24.23;12.68;;;2.60;99.90;;;;;;4994989;28;20509;-77
2020/12/26 10:03:10;;;;;;;30.13;13.80;;;2.70;99.90;;;;;;5008929;28;20034;-78
2020/12/26 10:05:36;;;;;;;27.52;13.23;;;2.70;99.90;;;;;;4993812;28;20439;-80
2020/12/26 10:08:02;;;;;;;27.05;13.25;;;2.70;99.90;;;;;;4997509;28;20042;-77
2020/12/26 10:10:27;;;;;;;29.50;14.40;;;2.80;99.90;;;;;;4995559;28;20041;-79
2020/12/26 10:12:53;;;;;;;26.75;14.85;;;2.80;99.90;;;;;;4997524;28;20074;-77
2020/12/26 10:15:19;;;;;;;35.40;15.07;;;2.80;99.90;;;;;;4993852;28;20530;-77
2020/12/26 10:17:45;;;;;;;35.33;15.70;;;2.80;99.90;;;;;;4997030;28;20038;-79
2020/12/26 10:20:11;;;;;;;33.00;14.60;;;2.80;99.90;;;;;;4995802;28;20039;-79
2020/12/26 10:22:36;;;;;;;27.00;14.27;;;2.80;99.90;;;;;;5005975;28;20415;-77
2020/12/26 10:25:02;;;;;;;27.17;13.63;;;2.90;99.90;;;;;;4983198;28;20070;-81
2020/12/26 10:27:28;;;;;;;29.08;15.02;;;2.90;99.90;;;;;;4997334;28;20046;-78
2020/12/26 10:29:57;;;;;;;24.27;13.23;;;2.90;99.90;;;;;;4976757;28;20389;-79
2020/12/26 10:32:23;;;;;;;28.00;13.32;;;2.90;99.90;;;;;;4999741;28;20042;-79
2020/12/26 10:34:49;;;;;;;24.67;12.23;;;2.80;99.90;;;;;;5003419;28;20050;-79
2020/12/26 10:37:16;;;;;;;23.63;13.20;;;2.80;99.90;;;;;;4998746;28;20793;-77
2020/12/26 10:39:42;;;;;;;21.90;11.27;;;2.80;99.90;;;;;;4993319;28;20042;-79
2020/12/26 10:42:08;;;;;;;24.17;12.73;;;2.90;99.90;;;;;;5000093;28;20031;-78
2020/12/26 10:44:34;;;;;;;22.73;10.70;;;3.00;99.90;;;;;;5002206;28;20052;-77
2020/12/26 10:47:00;;;;;;;22.30;11.77;;;3.00;99.90;;;;;;4998308;28;20435;-81
2020/12/26 10:49:26;;;;;;;23.70;12.18;;;3.10;99.90;;;;;;4998676;28;20045;-78
2020/12/26 10:51:52;;;;;;;22.77;10.88;;;2.90;99.90;;;;;;5015398;28;20042;-79
2020/12/26 10:54:17;;;;;;;20.77;10.95;;;2.90;99.90;;;;;;4998757;28;20508;-80
2020/12/26 10:56:47;;;;;;;22.55;12.52;;;2.90;99.90;;;;;;5016258;28;20472;-78
2020/12/26 10:59:13;;;;;;;23.17;12.35;;;2.90;99.90;;;;;;5002362;28;20046;-78
2020/12/26 11:01:38;;;;;;;24.17;11.68;;;2.90;99.90;;;;;;5003976;28;20395;-80
2020/12/26 11:04:04;;;;;;;25.67;12.15;;;2.90;99.90;;;;;;4997972;28;20108;-79
2020/12/26 11:06:30;;;;;;;24.10;11.68;;;2.80;99.90;;;;;;5002144;28;20057;-77
2020/12/26 11:08:56;;;;;;;21.02;11.30;;;2.90;99.90;;;;;;5003888;28;20076;-77
2020/12/26 11:11:21;;;;;;;21.88;11.27;;;2.90;99.90;;;;;;5000676;28;20091;-78
2020/12/26 11:13:47;;;;;;;23.23;10.73;;;3.00;99.90;;;;;;4996831;28;20041;-79
2020/12/26 11:16:16;;;;;;;21.63;10.75;;;3.00;99.90;;;;;;4988455;28;20049;-79
2020/12/26 11:18:44;;;;;;;22.20;10.02;;;3.00;99.90;;;;;;5002137;28;20463;-78
2020/12/26 11:21:15;;;;;;;19.20;10.52;;;3.10;99.90;;;;;;4998988;28;20389;-78
2020/12/26 11:23:40;;;;;;;20.85;10.00;;;3.10;99.90;;;;;;5001634;28;20033;-78
2020/12/26 11:26:06;;;;;;;17.05;9.73;;;3.20;99.90;;;;;;4998210;28;20435;-80
2020/12/26 11:28:32;;;;;;;20.73;9.23;;;3.30;99.90;;;;;;5002027;28;20038;-78
2020/12/26 11:30:57;;;;;;;17.52;9.20;;;3.40;99.90;;;;;;5020175;28;20436;-78
2020/12/26 11:33:23;;;;;;;19.05;9.55;;;3.50;99.90;;;;;;5007274;28;20427;-78
2020/12/26 11:35:49;;;;;;;18.83;9.88;;;3.50;99.90;;;;;;5007022;28;20030;-78
2020/12/26 11:38:14;;;;;;;22.20;10.35;;;3.60;99.90;;;;;;5000684;28;20046;-78
2020/12/26 11:40:40;;;;;;;19.85;9.88;;;3.50;99.90;;;;;;5007633;28;20030;-77
2020/12/26 11:43:06;;;;;;;21.10;9.73;;;3.50;99.90;;;;;;5011294;28;20033;-79
2020/12/26 11:45:31;;;;;;;18.42;9.82;;;3.40;99.90;;;;;;5003597;28;20554;-79
2020/12/26 11:47:57;;;;;;;15.88;8.82;;;3.40;99.90;;;;;;5007847;28;20410;-78
2020/12/26 11:50:22;;;;;;;16.27;9.13;;;3.40;99.90;;;;;;5010244;28;20049;-78
2020/12/26 11:52:48;;;;;;;16.13;8.48;;;3.50;99.90;;;;;;5002505;28;20062;-78
2020/12/26 11:55:14;;;;;;;15.45;8.73;;;3.60;99.90;;;;;;5011250;28;20164;-76
2020/12/26 11:57:40;;;;;;;18.63;9.80;;;3.60;99.90;;;;;;4993842;28;20058;-81
2020/12/26 12:00:05;;;;;;;17.52;9.13;;;3.60;99.90;;;;;;4986364;28;20047;-78
2020/12/26 12:02:31;;;;;;;16.25;8.70;;;3.60;99.90;;;;;;5008909;28;20698;-79
2020/12/26 12:04:57;;;;;;;24.40;10.88;;;3.60;99.90;;;;;;5011377;28;20072;-77
2020/12/26 12:07:22;;;;;;;19.92;9.23;;;3.50;99.90;;;;;;5009436;28;20103;-80
2020/12/26 12:09:48;;;;;;;16.60;8.68;;;3.50;99.90;;;;;;5005459;28;20104;-78
2020/12/26 12:12:14;;;;;;;14.90;8.15;;;3.60;99.90;;;;;;5006761;28;20049;-77
2020/12/26 12:14:40;;;;;;;15.27;7.95;;;5.30;99.90;;;;;;5013202;28;20053;-78
2020/12/26 12:17:06;;;;;;;17.45;7.28;;;3.50;99.90;;;;;;5012250;28;20065;-79
2020/12/26 12:19:31;;;;;;;15.85;7.13;;;3.40;99.90;;;;;;5010803;28;20045;-78
2020/12/26 12:21:57;;;;;;;13.38;7.07;;;3.60;99.90;;;;;;5006454;28;20037;-78
2020/12/26 12:24:23;;;;;;;13.57;6.90;;;3.60;99.90;;;;;;4999096;28;20038;-78
2020/12/26 12:26:48;;;;;;;14.40;7.50;;;3.50;99.90;;;;;;5009112;28;20052;-78
2020/12/26 12:29:14;;;;;;;14.25;7.47;;;3.60;99.90;;;;;;4995147;28;20524;-80
2020/12/26 12:31:40;;;;;;;14.10;6.82;;;3.50;99.90;;;;;;5006646;28;20480;-78
2020/12/26 12:34:09;;;;;;;12.75;6.63;;;3.50;99.90;;;;;;5010154;28;20136;-78
2020/12/26 12:36:35;;;;;;;15.23;7.05;;;3.50;99.90;;;;;;5009076;28;20495;-80
2020/12/26 12:39:01;;;;;;;11.05;6.05;;;3.50;99.90;;;;;;4999566;28;20030;-77
2020/12/26 12:41:28;;;;;;;17.55;6.43;;;3.50;99.90;;;;;;5002723;28;20029;-79
2020/12/26 12:43:54;;;;;;;12.68;6.50;;;3.50;99.90;;;;;;4997100;28;20034;-78
2020/12/26 12:46:19;;;;;;;12.68;6.80;;;3.50;99.90;;;;;;5011587;28;20121;-78
2020/12/26 12:48:45;;;;;;;15.45;6.50;;;3.40;99.90;;;;;;5010425;28;20533;-78